Time;durP1;ratioP1;P1;durP2;ratioP2;P2;SDS_P1;SDS_P2;PMS_P1;PMS_P2;Temp;Humidity;BMP_temperature;BMP_pressure;BME280_temperature;BME280_humidity;BME280_pressure;Samples;Min_cycle;Max_cycle;Signal;HPM_P1;HPM_P2
2022/05/20 00:01:19;;;;;;;28.13;6.40;;;26.40;96.30;;;;;;5083956;28;20027;-55
2022/05/20 00:03:45;;;;;;;18.88;5.50;;;26.40;96.20;;;;;;5083764;28;20048;-53
2022/05/20 00:06:12;;;;;;;23.40;5.78;;;26.40;96.10;;;;;;5084328;28;20032;-54
2022/05/20 00:08:39;;;;;;;17.60;5.72;;;26.40;96.10;;;;;;5084587;28;20031;-54
2022/05/20 00:11:06;;;;;;;24.90;5.75;;;26.40;96.20;;;;;;5083864;28;20013;-56
2022/05/20 00:13:33;;;;;;;23.42;5.63;;;26.40;96.00;;;;;;5083912;28;20020;-55
2022/05/20 00:16:09;;;;;;;20.08;5.45;;;26.40;96.10;;;;;;5083889;28;20020;-53
2022/05/20 00:18:35;;;;;;;18.95;4.90;;;26.40;96.00;;;;;;5083986;28;20016;-51
2022/05/20 00:21:02;;;;;;;16.77;5.20;;;26.40;95.90;;;;;;5084061;28;20192;-52
2022/05/20 00:23:29;;;;;;;20.27;5.95;;;26.40;95.90;;;;;;5083588;28;20061;-54
2022/05/20 00:25:55;;;;;;;18.02;4.65;;;26.40;96.00;;;;;;5084232;28;20027;-54
2022/05/20 00:28:28;;;;;;;22.10;5.80;;;26.40;96.00;;;;;;5082723;28;20048;-53
2022/05/20 00:31:07;;;;;;;19.45;5.65;;;26.40;96.10;;;;;;5084300;28;20020;-52
2022/05/20 00:33:35;;;;;;;20.35;5.53;;;26.40;96.10;;;;;;5083777;28;20044;-56
2022/05/20 00:36:02;;;;;;;20.42;5.43;;;26.40;96.20;;;;;;5084265;28;20324;-53
2022/05/20 00:38:29;;;;;;;22.80;5.38;;;26.40;96.20;;;;;;5083710;28;20329;-50
2022/05/20 00:40:58;;;;;;;19.77;5.72;;;26.40;96.20;;;;;;5083982;28;20020;-52
2022/05/20 00:43:34;;;;;;;19.27;5.55;;;26.40;96.20;;;;;;5083790;28;20020;-54
2022/05/20 00:46:05;;;;;;;20.05;5.38;;;26.40;96.20;;;;;;5083614;28;20032;-55
2022/05/20 00:48:33;;;;;;;19.90;5.32;;;26.40;96.20;;;;;;5083755;28;20012;-56
2022/05/20 00:51:06;;;;;;;32.67;6.32;;;26.40;96.20;;;;;;5083924;28;20016;-56
2022/05/20 00:53:55;;;;;;;35.55;7.07;;;26.40;96.20;;;;;;5082530;28;20023;-53
2022/05/20 00:56:28;;;;;;;28.55;7.10;;;26.40;96.20;;;;;;5083666;28;20078;-55
2022/05/20 00:58:56;;;;;;;21.08;5.28;;;26.30;96.30;;;;;;5083527;28;20044;-54
2022/05/20 01:01:23;;;;;;;40.53;8.80;;;26.30;96.30;;;;;;5083680;28;20232;-54
2022/05/20 01:03:52;;;;;;;28.60;8.10;;;26.30;96.30;;;;;;5082416;28;20268;-52
2022/05/20 01:06:22;;;;;;;21.30;6.22;;;26.30;96.30;;;;;;5084604;28;20040;-56
2022/05/20 01:08:49;;;;;;;29.67;7.55;;;26.30;96.40;;;;;;5082651;28;20212;-55
2022/05/20 01:11:16;;;;;;;17.85;6.30;;;26.30;96.40;;;;;;5084303;28;20080;-56
2022/05/20 01:13:47;;;;;;;25.17;6.55;;;26.30;96.60;;;;;;5084061;28;20021;-56
2022/05/20 01:16:15;;;;;;;21.33;6.40;;;26.30;96.40;;;;;;5084075;28;20017;-50
2022/05/20 01:18:45;;;;;;;27.88;7.32;;;26.30;96.40;;;;;;5083353;28;20508;-54
2022/05/20 01:21:14;;;;;;;21.25;7.13;;;26.30;96.40;;;;;;5083336;28;20027;-55
2022/05/20 01:23:40;;;;;;;21.40;6.43;;;26.30;96.40;;;;;;5083166;28;20041;-52
2022/05/20 01:26:07;;;;;;;24.42;6.75;;;26.30;96.40;;;;;;5083773;28;20027;-51
2022/05/20 01:28:41;;;;;;;23.48;7.05;;;26.30;96.40;;;;;;5082149;28;20024;-54
2022/05/20 01:31:14;;;;;;;18.02;6.88;;;26.30;96.40;;;;;;5083642;28;20044;-54
2022/05/20 01:33:49;;;;;;;20.85;7.03;;;26.30;96.40;;;;;;5083873;28;20024;-54
2022/05/20 01:36:22;;;;;;;23.30;6.00;;;26.30;96.40;;;;;;5086994;28;20091;-56
2022/05/20 01:38:52;;;;;;;23.42;6.65;;;26.30;96.40;;;;;;5086707;28;20051;-54
2022/05/20 01:41:34;;;;;;;22.45;7.03;;;26.30;96.40;;;;;;5086109;28;20040;-58
2022/05/20 01:44:12;;;;;;;21.85;6.28;;;26.30;96.30;;;;;;5087522;28;20089;-58
2022/05/20 01:47:15;;;;;;;21.20;6.72;;;26.30;96.40;;;;;;5087314;28;20020;-52
2022/05/20 01:50:04;;;;;;;22.42;6.22;;;26.30;96.40;;;;;;5086418;28;20025;-54
2022/05/20 01:52:54;;;;;;;25.75;7.57;;;26.30;96.40;;;;;;5086482;28;20259;-55
2022/05/20 01:55:44;;;;;;;15.88;5.50;;;26.30;96.40;;;;;;5086478;28;20013;-54
2022/05/20 01:58:27;;;;;;;20.40;6.43;;;26.30;96.30;;;;;;5086076;28;20031;-56
2022/05/20 02:01:01;;;;;;;21.02;5.95;;;26.30;96.30;;;;;;5085336;28;20362;-53
2022/05/20 02:03:50;;;;;;;18.88;6.05;;;26.30;96.30;;;;;;5068774;28;20056;-57
2022/05/20 02:06:26;;;;;;;19.05;6.00;;;26.30;96.30;;;;;;5086564;28;20200;-57
2022/05/20 02:09:07;;;;;;;21.92;6.40;;;26.30;96.20;;;;;;5085914;28;20200;-56
2022/05/20 02:11:47;;;;;;;23.83;6.43;;;26.20;96.20;;;;;;5086510;28;20030;-54
2022/05/20 02:14:38;;;;;;;22.65;5.72;;;26.20;96.20;;;;;;5084687;28;20058;-58
2022/05/20 02:17:15;;;;;;;21.90;5.60;;;26.20;96.10;;;;;;5086073;28;20089;-53
2022/05/20 02:19:54;;;;;;;22.98;5.75;;;26.20;96.20;;;;;;5085926;28;20035;-53
2022/05/20 02:22:25;;;;;;;28.15;6.45;;;26.20;96.10;;;;;;5084825;28;20047;-53
2022/05/20 02:24:54;;;;;;;24.52;6.55;;;26.20;96.10;;;;;;5085995;28;20086;-53
2022/05/20 02:27:28;;;;;;;27.52;9.13;;;26.20;96.10;;;;;;5085933;28;20061;-57
2022/05/20 02:30:13;;;;;;;30.27;10.13;;;26.20;96.10;;;;;;5085574;28;20032;-56
2022/05/20 02:32:56;;;;;;;40.33;14.93;;;26.20;96.10;;;;;;5085773;28;20042;-52
2022/05/20 02:35:24;;;;;;;43.25;17.35;;;26.20;96.00;;;;;;5085805;28;20047;-52
2022/05/20 02:37:51;;;;;;;38.45;14.63;;;26.20;95.90;;;;;;5085600;28;20197;-55
2022/05/20 02:40:19;;;;;;;35.33;11.40;;;26.20;95.90;;;;;;5085621;28;20028;-55
2022/05/20 02:42:45;;;;;;;31.60;10.80;;;26.10;95.90;;;;;;5085383;28;20032;-58
2022/05/20 02:45:13;;;;;;;27.95;9.52;;;26.10;95.90;;;;;;5085027;28;20083;-58
2022/05/20 02:47:40;;;;;;;28.92;8.25;;;26.10;95.90;;;;;;5084120;28;20032;-55
2022/05/20 02:50:10;;;;;;;28.27;7.55;;;26.10;95.80;;;;;;5085448;28;20055;-56
2022/05/20 02:52:37;;;;;;;24.45;6.80;;;26.10;95.80;;;;;;5085247;28;20036;-54
2022/05/20 02:55:05;;;;;;;32.22;7.63;;;26.10;95.70;;;;;;5085220;28;20016;-59
2022/05/20 02:57:32;;;;;;;25.83;7.50;;;26.10;95.50;;;;;;5085255;28;20020;-57
2022/05/20 03:05:28;;;;;;;27.60;6.15;;;26.10;95.40;;;;;;5084882;28;20097;-51
2022/05/20 03:07:55;;;;;;;32.33;7.20;;;26.00;95.30;;;;;;5084872;28;20213;-52
2022/05/20 03:10:22;;;;;;;27.60;8.60;;;26.00;95.20;;;;;;5085187;28;20016;-54
2022/05/20 03:12:48;;;;;;;30.08;11.38;;;26.00;95.10;;;;;;5084918;28;20035;-53
2022/05/20 03:15:17;;;;;;;28.73;13.18;;;26.00;95.10;;;;;;5084847;28;20082;-54
2022/05/20 03:17:43;;;;;;;28.60;13.15;;;26.00;95.10;;;;;;5083745;28;20020;-53
2022/05/20 03:20:11;;;;;;;32.05;11.57;;;26.00;95.10;;;;;;5084740;28;20050;-55
2022/05/20 03:22:38;;;;;;;29.90;10.30;;;25.90;95.00;;;;;;5083505;28;20095;-55
2022/05/20 03:25:06;;;;;;;28.92;9.07;;;26.00;95.00;;;;;;5085106;28;20028;-53
2022/05/20 03:27:33;;;;;;;32.92;9.38;;;25.90;95.00;;;;;;5084658;28;20024;-53
2022/05/20 03:30:00;;;;;;;27.50;8.90;;;25.90;95.00;;;;;;5084212;28;20023;-57
2022/05/20 03:32:27;;;;;;;27.35;7.65;;;25.90;94.90;;;;;;5084551;28;20013;-55
2022/05/20 03:34:56;;;;;;;27.98;7.40;;;25.90;94.90;;;;;;5083590;28;20020;-55
2022/05/20 03:37:24;;;;;;;33.17;7.55;;;25.90;94.90;;;;;;5083228;28;20028;-52
2022/05/20 03:39:52;;;;;;;26.48;7.63;;;25.90;94.90;;;;;;5084292;28;20032;-53
2022/05/20 03:42:25;;;;;;;27.35;6.68;;;25.90;95.00;;;;;;5084231;28;20375;-57
2022/05/20 03:44:52;;;;;;;25.75;6.22;;;25.90;95.00;;;;;;5084381;28;20078;-53
2022/05/20 03:47:20;;;;;;;26.48;6.10;;;25.90;94.90;;;;;;5084581;28;20087;-56
2022/05/20 03:49:46;;;;;;;27.27;6.18;;;25.90;94.90;;;;;;5084281;28;20047;-53
2022/05/20 03:52:14;;;;;;;22.35;6.25;;;25.90;94.90;;;;;;5084166;28;20120;-53
2022/05/20 03:54:42;;;;;;;29.45;6.35;;;25.90;94.90;;;;;;5084255;28;20056;-54
2022/05/20 03:57:09;;;;;;;31.13;6.57;;;25.90;94.90;;;;;;5083350;28;20372;-53
2022/05/20 03:59:36;;;;;;;26.67;7.18;;;25.90;94.90;;;;;;5084101;28;20194;-55
2022/05/20 04:02:09;;;;;;;27.95;6.40;;;25.90;94.80;;;;;;5083842;28;20045;-52
2022/05/20 04:04:39;;;;;;;28.15;6.38;;;25.90;94.80;;;;;;5083833;28;20060;-53
2022/05/20 04:07:09;;;;;;;23.20;6.68;;;25.90;94.80;;;;;;5084093;28;20331;-54
2022/05/20 04:09:36;;;;;;;27.05;6.50;;;25.90;94.80;;;;;;5084085;28;20025;-53
2022/05/20 04:12:06;;;;;;;31.33;6.55;;;25.90;94.80;;;;;;5082781;28;20020;-62
2022/05/20 04:14:35;;;;;;;25.85;5.75;;;25.90;94.90;;;;;;5083925;28;20024;-53
2022/05/20 04:17:03;;;;;;;22.83;5.88;;;25.80;94.90;;;;;;5083921;28;20051;-50
2022/05/20 04:19:32;;;;;;;22.98;5.57;;;25.80;95.00;;;;;;5083725;28;20335;-54
2022/05/20 04:22:04;;;;;;;21.25;6.13;;;25.90;95.00;;;;;;5083944;28;20371;-52
2022/05/20 04:24:30;;;;;;;25.02;5.93;;;25.80;94.80;;;;;;5088475;28;20024;-50
2022/05/20 04:26:57;;;;;;;25.67;6.30;;;25.80;94.80;;;;;;5094919;28;20028;-50
2022/05/20 04:29:23;;;;;;;26.45;5.95;;;25.80;95.00;;;;;;5089273;28;20020;-51
2022/05/20 04:31:51;;;;;;;24.08;6.20;;;25.80;95.00;;;;;;5104204;28;20020;-54
2022/05/20 04:34:19;;;;;;;29.20;6.38;;;25.80;94.90;;;;;;5103900;28;20021;-53
2022/05/20 04:36:46;;;;;;;24.75;5.72;;;25.80;94.90;;;;;;5104097;28;20020;-54
2022/05/20 04:39:13;;;;;;;28.83;5.85;;;25.80;94.90;;;;;;5103943;28;20016;-52
2022/05/20 04:47:18;;;;;;;26.95;6.30;;;25.70;94.70;;;;;;5083632;28;20047;-52
2022/05/20 04:49:45;;;;;;;28.58;6.97;;;25.70;94.70;;;;;;5082520;28;20209;-50
2022/05/20 04:52:12;;;;;;;27.35;6.63;;;25.70;94.70;;;;;;5083599;28;20042;-51
2022/05/20 04:54:50;;;;;;;28.50;6.53;;;25.70;94.60;;;;;;5083887;28;20251;-51
2022/05/20 04:57:28;;;;;;;26.05;5.78;;;25.70;94.70;;;;;;5083470;28;20020;-54
2022/05/20 05:00:21;;;;;;;26.17;6.25;;;25.70;94.70;;;;;;5083451;28;20032;-52
2022/05/20 05:02:48;;;;;;;26.17;5.93;;;25.70;94.70;;;;;;5083512;28;20363;-52
2022/05/20 05:05:22;;;;;;;27.60;6.95;;;25.70;94.60;;;;;;5083776;28;20032;-54
2022/05/20 05:07:52;;;;;;;29.40;6.32;;;25.70;94.60;;;;;;5082988;28;20024;-54
2022/05/20 05:10:22;;;;;;;30.80;7.00;;;25.80;94.60;;;;;;5087613;28;20028;-52
2022/05/20 05:12:49;;;;;;;27.10;6.88;;;25.80;94.70;;;;;;5086097;28;20017;-51
2022/05/20 05:15:17;;;;;;;27.75;6.80;;;25.80;94.70;;;;;;5087271;28;20025;-51
2022/05/20 05:20:32;;;;;;;28.27;5.95;;;25.80;95.00;;;;;;5086859;28;20212;-51
2022/05/20 05:23:00;;;;;;;24.73;5.65;;;25.70;94.80;;;;;;5087028;28;20027;-53
2022/05/20 05:25:31;;;;;;;25.70;6.07;;;25.70;94.90;;;;;;5087201;28;20025;-57
2022/05/20 05:27:59;;;;;;;30.88;6.18;;;25.70;94.90;;;;;;5085760;28;20332;-52
2022/05/20 05:30:27;;;;;;;25.67;6.78;;;25.70;94.90;;;;;;5087123;28;20079;-54
2022/05/20 05:32:53;;;;;;;27.35;6.28;;;25.70;94.90;;;;;;5086826;28;20054;-54
2022/05/20 05:35:24;;;;;;;24.95;5.68;;;25.70;94.90;;;;;;5086948;28;20036;-54
2022/05/20 05:37:51;;;;;;;25.80;6.32;;;25.70;94.90;;;;;;5086732;28;20048;-51
2022/05/20 05:40:21;;;;;;;28.85;6.15;;;25.70;94.90;;;;;;5086727;28;20025;-52
2022/05/20 05:42:48;;;;;;;27.73;5.97;;;25.70;94.90;;;;;;5085482;28;20031;-51
2022/05/20 05:45:19;;;;;;;26.40;5.93;;;25.70;94.90;;;;;;5086661;28;20052;-53
2022/05/20 05:48:10;;;;;;;26.88;6.25;;;25.70;94.90;;;;;;5086376;28;20025;-54
2022/05/20 05:50:40;;;;;;;25.80;5.80;;;25.70;94.80;;;;;;5081735;28;20206;-54
2022/05/20 05:53:10;;;;;;;28.65;6.53;;;25.70;94.80;;;;;;5086368;28;20211;-54
2022/05/20 05:55:38;;;;;;;24.17;6.47;;;25.70;94.70;;;;;;5086709;28;20028;-50
2022/05/20 05:58:05;;;;;;;28.92;6.13;;;25.70;94.70;;;;;;5086421;28;20339;-51
2022/05/20 06:00:31;;;;;;;27.92;6.15;;;25.70;94.70;;;;;;5086136;28;20017;-52
2022/05/20 06:02:58;;;;;;;26.10;6.65;;;25.70;94.70;;;;;;5086092;28;20050;-51
2022/05/20 06:05:25;;;;;;;36.10;6.25;;;25.70;94.70;;;;;;5086511;28;20063;-54
2022/05/20 06:07:51;;;;;;;24.73;5.82;;;25.70;94.60;;;;;;5085930;28;20352;-51
2022/05/20 06:10:19;;;;;;;25.20;6.05;;;25.70;94.60;;;;;;5086307;28;20047;-56
2022/05/20 06:12:45;;;;;;;29.90;6.57;;;25.70;94.60;;;;;;5086102;28;20040;-50
2022/05/20 06:15:18;;;;;;;25.90;6.35;;;25.60;94.50;;;;;;5086096;28;20073;-52
2022/05/20 06:17:45;;;;;;;24.90;5.68;;;25.70;94.40;;;;;;5086132;28;20243;-52
2022/05/20 06:20:12;;;;;;;33.90;7.07;;;25.60;94.40;;;;;;5085372;28;20321;-53
2022/05/20 06:22:39;;;;;;;28.73;5.97;;;25.70;94.40;;;;;;5085770;28;20138;-52
2022/05/20 06:25:06;;;;;;;31.83;6.75;;;25.70;94.20;;;;;;5085859;28;20029;-52
2022/05/20 06:27:33;;;;;;;29.23;7.20;;;25.60;94.20;;;;;;5085671;28;20244;-56
2022/05/20 06:30:00;;;;;;;27.98;6.50;;;25.70;94.10;;;;;;5085515;28;20031;-52
2022/05/20 06:32:27;;;;;;;23.35;6.55;;;25.70;94.20;;;;;;5085835;28;20012;-52
2022/05/20 06:40:23;;;;;;;28.95;6.72;;;25.60;94.10;;;;;;5085667;28;20088;-53
2022/05/20 06:42:50;;;;;;;28.50;6.82;;;25.60;94.20;;;;;;5085480;28;20075;-54
2022/05/20 06:45:17;;;;;;;30.05;6.63;;;25.60;94.20;;;;;;5085735;28;20032;-52
2022/05/20 06:47:44;;;;;;;25.73;6.40;;;25.60;94.20;;;;;;5085232;28;20028;-53
2022/05/20 06:50:13;;;;;;;34.00;6.47;;;25.60;94.20;;;;;;5085474;28;20040;-51
2022/05/20 06:52:39;;;;;;;34.42;6.72;;;25.60;94.20;;;;;;5085309;28;20076;-52
2022/05/20 06:55:10;;;;;;;31.95;7.28;;;25.60;94.20;;;;;;5085217;28;20058;-54
2022/05/20 06:57:40;;;;;;;33.58;7.03;;;25.60;94.10;;;;;;5085175;28;20023;-52
2022/05/20 07:00:11;;;;;;;31.25;7.30;;;25.60;94.20;;;;;;5085254;28;20093;-53
2022/05/20 07:02:39;;;;;;;28.33;6.38;;;25.60;94.20;;;;;;5084884;28;20044;-52
2022/05/20 07:05:06;;;;;;;33.45;7.35;;;25.50;94.20;;;;;;5085147;28;20027;-51
2022/05/20 07:07:33;;;;;;;28.88;6.10;;;25.50;94.20;;;;;;5084870;28;20032;-51
2022/05/20 07:10:00;;;;;;;23.73;6.65;;;25.50;94.20;;;;;;5084903;28;20048;-52
2022/05/20 07:12:26;;;;;;;34.35;6.60;;;25.50;94.20;;;;;;5084844;28;20217;-51
2022/05/20 07:14:53;;;;;;;32.92;6.78;;;25.50;94.20;;;;;;5084979;28;20308;-51
2022/05/20 07:17:20;;;;;;;31.48;6.45;;;25.50;94.30;;;;;;5084652;28;20048;-52
2022/05/20 07:19:50;;;;;;;24.83;5.93;;;25.50;94.30;;;;;;5084822;28;20035;-55
2022/05/20 07:22:17;;;;;;;30.48;7.10;;;25.50;94.30;;;;;;5084672;28;20043;-53
2022/05/20 07:24:43;;;;;;;26.88;6.35;;;25.50;94.30;;;;;;5084541;28;20040;-51
2022/05/20 07:27:10;;;;;;;27.20;6.20;;;25.50;94.30;;;;;;5084684;28;20013;-51
2022/05/20 07:29:38;;;;;;;30.05;6.55;;;25.50;94.30;;;;;;5084748;28;20025;-52
2022/05/20 07:32:05;;;;;;;31.90;7.03;;;25.50;94.20;;;;;;5083412;28;20084;-52
2022/05/20 07:34:33;;;;;;;28.98;6.88;;;25.50;94.20;;;;;;5084608;28;20027;-53
2022/05/20 07:37:00;;;;;;;26.23;6.78;;;25.50;94.30;;;;;;5084424;28;20031;-51
2022/05/20 07:39:29;;;;;;;32.92;7.13;;;25.50;94.30;;;;;;5084234;28;20027;-51
2022/05/20 07:41:56;;;;;;;27.88;6.55;;;25.50;94.30;;;;;;5084424;28;20066;-52
2022/05/20 07:44:22;;;;;;;30.10;7.07;;;25.50;94.30;;;;;;5084462;28;20232;-51
2022/05/20 07:46:49;;;;;;;32.08;6.30;;;25.50;94.20;;;;;;5084170;28;20025;-51
2022/05/20 07:49:15;;;;;;;29.63;7.03;;;25.40;94.20;;;;;;5084253;28;20012;-51
2022/05/20 07:51:45;;;;;;;27.05;6.10;;;25.40;94.20;;;;;;5084301;28;20021;-54
2022/05/20 07:54:32;;;;;;;31.88;6.68;;;25.40;94.30;;;;;;5084105;28;20186;-51
2022/05/20 07:57:03;;;;;;;29.77;6.45;;;25.40;94.30;;;;;;5084252;28;20021;-51
2022/05/20 07:59:37;;;;;;;25.73;6.53;;;25.40;94.30;;;;;;5084002;28;20024;-51
2022/05/20 08:02:04;;;;;;;28.02;6.85;;;25.40;94.30;;;;;;5084093;28;20044;-49
2022/05/20 08:04:53;;;;;;;27.55;6.20;;;25.40;94.30;;;;;;5083932;28;20027;-50
2022/05/20 08:07:24;;;;;;;27.92;7.07;;;25.40;94.40;;;;;;5084192;28;20025;-51
2022/05/20 08:09:51;;;;;;;30.23;6.90;;;25.40;94.40;;;;;;5084205;28;20032;-53
2022/05/20 08:12:17;;;;;;;30.25;6.47;;;25.40;94.50;;;;;;5084052;28;20032;-52
2022/05/20 08:14:44;;;;;;;26.05;6.50;;;25.40;94.50;;;;;;5084033;28;20032;-54
2022/05/20 08:17:11;;;;;;;34.88;7.00;;;25.30;94.40;;;;;;5083968;28;20031;-52
2022/05/20 08:19:39;;;;;;;26.25;6.13;;;25.30;94.40;;;;;;5084187;28;20092;-52
2022/05/20 08:22:06;;;;;;;28.13;6.72;;;25.30;94.40;;;;;;5083889;28;20343;-52
2022/05/20 08:24:33;;;;;;;29.58;6.43;;;25.30;94.50;;;;;;5083916;28;20034;-51
2022/05/20 08:26:59;;;;;;;32.95;6.88;;;25.30;94.50;;;;;;5083954;28;20236;-53
2022/05/20 08:29:26;;;;;;;32.50;7.07;;;25.30;94.50;;;;;;5083795;28;20021;-52
2022/05/20 08:31:53;;;;;;;23.75;6.75;;;25.30;94.50;;;;;;5083665;28;20023;-51
2022/05/20 08:34:19;;;;;;;26.85;6.75;;;25.30;94.60;;;;;;5083716;28;20178;-51
2022/05/20 08:36:46;;;;;;;28.17;6.78;;;25.30;94.60;;;;;;5083754;28;20032;-53
2022/05/20 08:39:14;;;;;;;26.30;6.72;;;25.30;94.70;;;;;;5083661;28;20039;-49
2022/05/20 08:41:47;;;;;;;27.08;6.57;;;25.30;94.70;;;;;;5084077;28;20247;-51
2022/05/20 08:44:18;;;;;;;26.00;6.45;;;25.30;94.70;;;;;;5087063;28;20020;-50
2022/05/20 08:46:46;;;;;;;27.40;6.43;;;25.30;94.70;;;;;;5087596;28;20099;-59
2022/05/20 08:49:16;;;;;;;31.77;6.68;;;25.30;94.80;;;;;;5087716;28;20016;-51
2022/05/20 08:51:53;;;;;;;27.55;6.50;;;25.30;94.80;;;;;;5087674;28;20255;-52
2022/05/20 08:54:20;;;;;;;26.13;5.90;;;25.30;94.80;;;;;;5087527;28;20016;-58
2022/05/20 08:56:47;;;;;;;31.20;7.50;;;25.30;94.80;;;;;;5087657;28;20051;-52
2022/05/20 08:59:22;;;;;;;31.05;6.45;;;25.30;94.80;;;;;;5087266;28;20024;-50
2022/05/20 09:01:52;;;;;;;29.67;6.40;;;25.30;94.80;;;;;;5091983;28;20213;-51
2022/05/20 09:04:24;;;;;;;26.20;6.75;;;25.30;94.80;;;;;;5107554;28;20027;-51
2022/05/20 09:07:06;;;;;;;28.77;6.63;;;25.30;94.80;;;;;;5107514;28;20062;-51
2022/05/20 09:09:50;;;;;;;30.98;6.60;;;25.30;94.80;;;;;;5107567;28;20020;-51
2022/05/20 09:12:33;;;;;;;32.42;6.72;;;25.30;94.80;;;;;;5107536;28;20046;-51
2022/05/20 09:17:49;;;;;;;29.15;7.00;;;25.30;94.80;;;;;;5107713;28;20019;-52
2022/05/20 09:20:18;;;;;;;27.33;7.35;;;25.30;94.80;;;;;;5107402;28;20055;-57
2022/05/20 09:23:04;;;;;;;28.08;6.60;;;25.30;94.80;;;;;;5107282;28;20274;-56
2022/05/20 09:25:34;;;;;;;25.42;7.18;;;25.30;94.80;;;;;;5107827;28;20380;-52
2022/05/20 09:28:25;;;;;;;30.08;6.97;;;25.30;94.80;;;;;;5107319;28;20024;-53
2022/05/20 09:31:01;;;;;;;26.90;6.72;;;25.30;94.90;;;;;;5107512;28;20205;-52
2022/05/20 09:33:33;;;;;;;25.67;6.43;;;25.30;94.90;;;;;;5107288;28;20023;-51
2022/05/20 09:36:02;;;;;;;27.23;6.60;;;25.30;94.90;;;;;;5107426;28;20204;-52
2022/05/20 09:38:38;;;;;;;28.25;6.85;;;25.20;95.00;;;;;;5106995;28;20032;-52
2022/05/20 09:41:20;;;;;;;26.17;6.75;;;25.30;95.00;;;;;;5107392;28;20335;-52
2022/05/20 09:43:59;;;;;;;26.00;7.30;;;25.20;94.90;;;;;;5106991;28;20251;-52
2022/05/20 09:46:52;;;;;;;29.88;6.68;;;25.30;95.00;;;;;;5107250;28;20062;-52
2022/05/20 09:49:41;;;;;;;27.98;6.75;;;25.20;95.00;;;;;;5068970;28;20275;-51
2022/05/20 09:52:42;;;;;;;27.40;6.30;;;25.20;95.10;;;;;;5106650;28;20341;-52
2022/05/20 09:55:36;;;;;;;26.00;6.60;;;25.30;95.10;;;;;;5091607;28;20088;-52
2022/05/20 09:58:39;;;;;;;28.60;6.85;;;25.30;95.10;;;;;;5106733;28;20307;-52
2022/05/20 10:01:16;;;;;;;26.88;5.97;;;25.30;95.20;;;;;;5024777;28;20118;-51
2022/05/20 10:03:50;;;;;;;34.58;7.35;;;25.20;95.20;;;;;;5096193;28;20136;-52
2022/05/20 10:06:26;;;;;;;26.33;6.10;;;25.20;95.20;;;;;;5106879;28;20090;-55
2022/05/20 10:09:22;;;;;;;19.95;5.18;;;25.20;95.10;;;;;;5106266;28;20020;-53
2022/05/20 10:12:12;;;;;;;24.00;5.88;;;25.20;95.10;;;;;;5106228;28;20066;-49
2022/05/20 10:14:45;;;;;;;29.75;6.28;;;25.30;95.10;;;;;;5106420;28;20204;-52
2022/05/20 10:17:29;;;;;;;;;;;25.20;95.10;;;;;;5106619;28;20020;-52
2022/05/20 10:20:20;;;;;;;30.52;7.45;;;25.20;95.20;;;;;;5106432;28;19904;-52
2022/05/20 10:22:46;;;;;;;34.65;6.40;;;25.20;95.20;;;;;;5106160;28;20383;-52
2022/05/20 10:25:29;;;;;;;25.58;6.60;;;25.20;95.20;;;;;;5106287;28;20177;-53
2022/05/20 10:32:34;;;;;;;29.08;6.85;;;25.20;95.10;;;;;;5105895;28;20032;-52
2022/05/20 10:33:58;;;;;;;29.95;7.63;;;25.20;95.10;;;;;;5105842;28;20015;-51
2022/05/20 10:36:34;;;;;;;30.08;7.85;;;25.20;95.10;;;;;;5106269;28;20024;-53
2022/05/20 10:39:24;;;;;;;36.30;8.82;;;25.20;95.10;;;;;;5105843;28;20015;-53
2022/05/20 10:42:15;;;;;;;28.42;7.50;;;25.20;95.10;;;;;;5105952;28;20077;-52
2022/05/20 10:50:32;;;;;;;26.80;8.02;;;25.20;95.20;;;;;;5105875;28;20335;-53
2022/05/20 10:53:11;;;;;;;24.48;7.32;;;25.20;95.10;;;;;;5105445;28;20024;-53
2022/05/20 10:55:56;;;;;;;26.40;7.30;;;25.20;95.20;;;;;;5105693;28;20016;-53
2022/05/20 10:58:28;;;;;;;39.45;7.40;;;25.20;95.00;;;;;;5105232;28;20031;-57
2022/05/20 11:00:58;;;;;;;;;;;25.20;95.00;;;;;;5105802;28;20097;-53
2022/05/20 11:03:39;;;;;;;29.45;6.90;;;25.20;95.00;;;;;;5104712;28;20211;-54
2022/05/20 11:06:30;;;;;;;35.30;7.72;;;25.20;94.90;;;;;;5105209;28;20073;-53
2022/05/20 11:09:36;;;;;;;31.88;7.22;;;25.20;95.00;;;;;;5104790;28;20133;-54
2022/05/20 11:12:07;;;;;;;25.73;7.47;;;25.20;94.90;;;;;;5088724;28;20048;-51
2022/05/20 11:14:46;;;;;;;35.58;8.13;;;25.30;94.80;;;;;;5105381;28;20242;-57
2022/05/20 11:17:34;;;;;;;37.67;8.13;;;25.20;94.70;;;;;;5095662;28;20028;-54
2022/05/20 11:20:18;;;;;;;26.13;7.55;;;25.30;94.70;;;;;;5096806;28;20095;-56
2022/05/20 11:23:24;;;;;;;32.63;7.80;;;25.20;94.70;;;;;;5104572;28;20370;-55
2022/05/20 11:26:23;;;;;;;33.92;8.15;;;25.20;94.70;;;;;;5103677;28;20073;-54
2022/05/20 11:29:27;;;;;;;28.40;7.35;;;25.30;94.70;;;;;;5102896;28;20015;-51
2022/05/20 11:31:59;;;;;;;35.88;8.50;;;25.20;94.60;;;;;;5102536;28;20287;-52
2022/05/20 11:34:53;;;;;;;37.42;8.60;;;25.30;94.60;;;;;;5101904;28;20019;-53
2022/05/20 11:38:01;;;;;;;33.40;8.55;;;25.30;94.50;;;;;;5102780;28;20023;-51
2022/05/20 11:40:52;;;;;;;34.40;8.52;;;25.30;94.50;;;;;;5059598;28;20028;-55
2022/05/20 11:43:49;;;;;;;32.38;8.20;;;25.30;94.50;;;;;;5104645;28;20024;-53
2022/05/20 11:46:48;;;;;;;28.85;7.95;;;25.30;94.50;;;;;;5104969;28;20208;-54
2022/05/20 11:49:21;;;;;;;32.33;8.25;;;25.30;94.60;;;;;;5058523;28;20103;-52
2022/05/20 11:51:51;;;;;;;28.20;7.90;;;25.30;94.60;;;;;;5088266;28;20312;-49
2022/05/20 11:54:27;;;;;;;33.92;8.45;;;25.30;94.60;;;;;;5104397;28;20022;-53
2022/05/20 11:56:57;;;;;;;26.77;7.32;;;25.30;94.70;;;;;;5104505;28;20065;-54
2022/05/20 11:59:49;;;;;;;30.05;8.25;;;25.30;94.70;;;;;;5104380;28;20099;-54
2022/05/20 12:02:17;;;;;;;28.83;8.00;;;25.30;94.60;;;;;;5104371;28;20106;-54
2022/05/20 12:04:46;;;;;;;26.13;7.80;;;25.30;94.70;;;;;;5104276;28;20273;-54
2022/05/20 12:07:16;;;;;;;26.98;7.95;;;25.30;94.70;;;;;;5104867;28;20065;-55
2022/05/20 12:09:49;;;;;;;28.50;8.02;;;25.40;94.70;;;;;;5104307;28;20216;-52
2022/05/20 12:12:20;;;;;;;31.83;8.57;;;25.30;94.70;;;;;;5104604;28;20015;-52
2022/05/20 12:15:01;;;;;;;26.23;8.80;;;25.40;94.70;;;;;;5104274;28;20185;-51
2022/05/20 12:17:32;;;;;;;26.88;8.23;;;25.40;94.70;;;;;;5103885;28;20020;-54
2022/05/20 12:26:00;;;;;;;30.50;8.05;;;25.50;94.70;;;;;;5104006;28;20065;-51
2022/05/20 12:28:26;;;;;;;29.67;7.80;;;25.50;94.60;;;;;;5104305;28;20256;-53
2022/05/20 12:31:17;;;;;;;25.55;6.97;;;25.60;94.50;;;;;;5103904;28;20055;-51
2022/05/20 12:34:05;;;;;;;28.70;7.25;;;25.70;94.20;;;;;;5104078;28;20028;-54
2022/05/20 12:36:42;;;;;;;24.90;7.25;;;25.80;94.10;;;;;;5101587;28;20044;-53
2022/05/20 12:39:09;;;;;;;22.40;6.38;;;25.80;94.10;;;;;;5098020;28;20044;-51
2022/05/20 12:41:44;;;;;;;27.77;7.28;;;25.90;94.10;;;;;;5094335;28;20031;-52
2022/05/20 12:44:20;;;;;;;25.52;6.53;;;25.90;93.90;;;;;;5103927;28;20058;-52
2022/05/20 12:47:05;;;;;;;30.95;7.60;;;25.90;93.90;;;;;;5103925;28;20066;-53
2022/05/20 12:50:03;;;;;;;24.73;6.40;;;25.90;93.70;;;;;;5103998;28;20275;-57
2022/05/20 12:52:33;;;;;;;28.17;7.13;;;26.00;93.90;;;;;;5085962;28;20324;-54
2022/05/20 12:55:04;;;;;;;21.83;7.38;;;26.00;93.80;;;;;;5103715;28;20020;-52
2022/05/20 12:57:36;;;;;;;24.25;6.53;;;26.10;93.80;;;;;;5102797;28;20070;-52
2022/05/20 13:00:12;;;;;;;27.58;6.45;;;26.10;93.90;;;;;;5102787;28;20058;-53
2022/05/20 13:02:43;;;;;;;22.25;6.78;;;26.10;93.90;;;;;;5103529;28;20052;-49
2022/05/20 13:05:23;;;;;;;26.63;7.00;;;26.10;93.70;;;;;;5103723;28;20024;-51
2022/05/20 13:07:53;;;;;;;24.77;6.60;;;26.10;93.70;;;;;;5103751;28;20031;-52
2022/05/20 13:10:29;;;;;;;21.05;5.88;;;26.20;93.80;;;;;;5103603;28;20016;-52
2022/05/20 13:13:01;;;;;;;25.33;7.15;;;26.20;93.90;;;;;;5103298;28;20194;-54
2022/05/20 13:15:28;;;;;;;26.85;6.82;;;26.20;93.80;;;;;;5103705;28;20335;-54
2022/05/20 13:18:05;;;;;;;26.35;6.85;;;26.30;93.70;;;;;;5103962;28;20031;-53
2022/05/20 13:20:35;;;;;;;17.67;5.10;;;26.30;93.70;;;;;;5103533;28;20024;-53
2022/05/20 13:23:06;;;;;;;20.73;5.53;;;26.40;93.70;;;;;;5092563;28;20027;-51
2022/05/20 13:25:33;;;;;;;24.67;6.40;;;26.40;93.50;;;;;;5102315;28;20043;-52
2022/05/20 13:28:00;;;;;;;25.52;6.57;;;26.40;93.60;;;;;;5095297;28;20091;-55
2022/05/20 13:30:30;;;;;;;20.83;5.72;;;26.50;93.50;;;;;;5106841;28;20283;-50
2022/05/20 13:33:03;;;;;;;20.45;5.65;;;26.50;93.30;;;;;;5107376;28;20024;-49
2022/05/20 13:35:29;;;;;;;;;;;26.60;93.10;;;;;;5107478;28;20044;-54
2022/05/20 13:37:59;;;;;;;24.42;6.65;;;26.60;93.00;;;;;;5107381;28;19908;-55
2022/05/20 13:40:42;;;;;;;26.75;6.18;;;26.60;93.10;;;;;;5105759;28;20028;-52
2022/05/20 13:43:14;;;;;;;23.40;6.45;;;26.60;92.90;;;;;;5107379;28;20030;-54
2022/05/20 13:51:32;;;;;;;22.00;5.85;;;26.70;92.70;;;;;;5086515;28;20023;-55